createdAt,value
2022-11-24T00:01:06.019Z,3.37
2022-11-24T00:03:33.524Z,3.30
2022-11-24T00:06:04.417Z,4.90
2022-11-24T00:08:31.924Z,4.33
2022-11-24T00:11:03.478Z,3.37
2022-11-24T00:13:31.917Z,4.33
2022-11-24T00:16:06.866Z,2.97
2022-11-24T00:18:34.269Z,2.77
2022-11-24T00:21:01.704Z,4.77
2022-11-24T00:23:29.120Z,4.53
2022-11-24T00:25:56.630Z,5.30
2022-11-24T00:28:24.020Z,2.97
2022-11-24T00:30:51.482Z,5.10
2022-11-24T00:33:20.295Z,4.37
2022-11-24T00:35:54.684Z,5.40
2022-11-24T00:38:22.083Z,5.53
2022-11-24T00:40:49.484Z,2.43
2022-11-24T00:43:16.878Z,2.90
2022-11-24T00:45:44.502Z,7.20
2022-11-24T00:48:11.980Z,5.13
2022-11-24T00:50:40.812Z,4.20
2022-11-24T00:53:08.302Z,5.37
2022-11-24T00:55:35.729Z,4.77
2022-11-24T00:58:03.200Z,5.40
2022-11-24T01:00:30.598Z,4.87
2022-11-24T01:02:58.049Z,4.47
2022-11-24T01:05:26.537Z,6.80
2022-11-24T01:07:55.344Z,4.90
2022-11-24T01:10:22.750Z,6.07
2022-11-24T01:12:50.256Z,6.63
2022-11-24T01:15:17.672Z,6.87
2022-11-24T01:17:45.086Z,6.37
2022-11-24T01:20:12.971Z,6.07
2022-11-24T01:22:41.579Z,7.80
2022-11-24T01:25:11.159Z,5.63
2022-11-24T01:27:38.883Z,6.57
2022-11-24T01:30:07.340Z,7.07
2022-11-24T01:32:36.224Z,5.33
2022-11-24T01:35:03.639Z,5.37
2022-11-24T01:37:31.048Z,7.97
2022-11-24T01:39:58.439Z,5.00
2022-11-24T01:42:27.219Z,6.17
2022-11-24T01:45:15.470Z,6.73
2022-11-24T01:47:42.919Z,6.70
2022-11-24T01:50:14.856Z,7.40
2022-11-24T01:52:44.149Z,8.23
2022-11-24T01:55:15.399Z,6.43
2022-11-24T01:57:45.265Z,7.07
2022-11-24T02:00:14.530Z,7.90
2022-11-24T02:02:42.446Z,8.47
2022-11-24T02:05:13.527Z,10.83
2022-11-24T02:07:41.045Z,7.87
2022-11-24T02:10:10.096Z,6.90
2022-11-24T02:12:38.878Z,7.50
2022-11-24T02:15:09.663Z,9.37
2022-11-24T02:17:37.253Z,7.70
2022-11-24T02:20:06.015Z,9.80
2022-11-24T02:22:37.101Z,8.63
2022-11-24T02:25:07.745Z,11.50
2022-11-24T02:27:36.605Z,6.47
2022-11-24T02:30:04.712Z,7.97
2022-11-24T02:32:32.935Z,10.27
2022-11-24T02:35:01.009Z,10.93
2022-11-24T02:37:28.444Z,7.73
2022-11-24T02:39:55.844Z,6.07
2022-11-24T02:42:23.519Z,11.77
2022-11-24T02:44:54.467Z,8.53
2022-11-24T02:47:21.899Z,10.87
2022-11-24T02:49:49.309Z,7.97
2022-11-24T02:52:16.829Z,10.03
2022-11-24T02:54:44.354Z,8.30
2022-11-24T02:57:11.993Z,8.57
2022-11-24T02:59:39.421Z,10.03
2022-11-24T03:02:08.204Z,8.40
2022-11-24T03:04:35.966Z,13.97
2022-11-24T03:07:03.642Z,13.63
2022-11-24T03:09:31.449Z,13.70
2022-11-24T03:11:58.837Z,9.47
2022-11-24T03:14:26.241Z,12.10
2022-11-24T03:16:53.641Z,9.13
2022-11-24T03:19:22.386Z,12.07
2022-11-24T03:21:49.834Z,15.60
2022-11-24T03:24:17.349Z,10.20
2022-11-24T03:26:44.778Z,11.50
2022-11-24T03:29:12.175Z,9.90
2022-11-24T03:31:39.705Z,14.03
2022-11-24T03:34:07.267Z,9.53
2022-11-24T03:36:36.022Z,15.80
2022-11-24T03:39:03.419Z,8.30
2022-11-24T03:41:30.837Z,12.00
2022-11-24T03:43:58.310Z,14.43
2022-11-24T03:46:25.755Z,10.13
2022-11-24T03:48:53.355Z,12.87
2022-11-24T03:51:20.814Z,10.07
2022-11-24T03:53:49.625Z,12.53
2022-11-24T03:56:18.080Z,8.70
2022-11-24T03:58:46.477Z,15.77
2022-11-24T04:01:14.027Z,14.07
2022-11-24T04:03:41.474Z,8.90
2022-11-24T04:06:08.941Z,9.40
2022-11-24T04:08:36.354Z,13.63
2022-11-24T04:11:05.270Z,16.40
2022-11-24T04:13:31.687Z,14.13
2022-11-24T04:15:59.142Z,19.87
2022-11-24T04:18:26.634Z,10.37
2022-11-24T04:20:54.037Z,9.77
2022-11-24T04:23:21.460Z,14.87
2022-11-24T04:25:48.865Z,15.67
2022-11-24T04:28:17.585Z,8.83
2022-11-24T04:30:45.417Z,12.17
2022-11-24T04:33:13.407Z,11.87
2022-11-24T04:35:40.895Z,16.40
2022-11-24T04:38:08.301Z,8.90
2022-11-24T04:40:35.733Z,13.63
2022-11-24T04:43:03.149Z,10.33
2022-11-24T04:45:31.912Z,9.83
2022-11-24T04:48:00.424Z,9.73
2022-11-24T04:50:27.905Z,17.43
2022-11-24T04:52:55.323Z,12.57
2022-11-24T04:55:22.748Z,11.60
2022-11-24T04:57:50.147Z,18.03
2022-11-24T05:00:18.111Z,14.43
2022-11-24T05:02:46.864Z,16.13
2022-11-24T05:05:14.308Z,17.80
2022-11-24T05:07:41.704Z,7.57
2022-11-24T05:10:27.255Z,18.53
2022-11-24T05:12:55.314Z,13.20
2022-11-24T05:15:22.731Z,11.87
2022-11-24T05:17:51.486Z,9.37
2022-11-24T05:20:19.254Z,14.33
2022-11-24T05:22:46.685Z,15.80
2022-11-24T05:25:14.312Z,16.87
2022-11-24T05:27:41.738Z,16.53
2022-11-24T05:30:09.952Z,12.17
2022-11-24T05:32:37.357Z,16.40
2022-11-24T05:35:07.155Z,11.50
2022-11-24T05:37:34.713Z,15.87
2022-11-24T05:40:02.129Z,12.03
2022-11-24T05:42:46.582Z,17.10
2022-11-24T05:45:16.007Z,21.67
2022-11-24T05:47:43.467Z,12.63
2022-11-24T05:50:13.254Z,18.17
2022-11-24T05:52:40.697Z,12.33
2022-11-24T05:55:08.797Z,14.33
2022-11-24T05:57:36.514Z,16.57
2022-11-24T06:00:04.738Z,14.73
2022-11-24T06:02:32.250Z,16.17
2022-11-24T06:04:59.846Z,10.23
2022-11-24T06:07:28.705Z,11.43
2022-11-24T06:09:56.135Z,15.70
2022-11-24T06:12:24.590Z,15.83
2022-11-24T06:14:52.181Z,17.80
2022-11-24T06:17:19.590Z,16.10
2022-11-24T06:19:50.021Z,17.13
2022-11-24T06:22:18.818Z,13.87
2022-11-24T06:24:47.831Z,15.30
2022-11-24T06:27:15.450Z,17.80
2022-11-24T06:29:42.865Z,9.53
2022-11-24T06:32:10.697Z,10.87
2022-11-24T06:34:39.162Z,15.30
2022-11-24T06:37:06.554Z,14.93
2022-11-24T06:39:34.070Z,15.73
2022-11-24T06:42:03.054Z,15.63
2022-11-24T06:44:30.424Z,18.10
2022-11-24T06:46:57.843Z,19.50
2022-11-24T06:49:25.242Z,13.87
2022-11-24T06:51:55.067Z,12.93
2022-11-24T06:54:22.654Z,19.60
2022-11-24T06:56:50.060Z,13.27
2022-11-24T06:59:19.763Z,19.27
2022-11-24T07:01:47.882Z,18.37
2022-11-24T07:04:15.936Z,14.90
2022-11-24T07:06:43.476Z,14.20
2022-11-24T07:09:11.454Z,14.80
2022-11-24T07:11:39.220Z,11.90
2022-11-24T07:14:07.041Z,11.97
2022-11-24T07:16:35.896Z,14.07
2022-11-24T07:19:03.367Z,12.80
2022-11-24T07:21:31.111Z,12.63
2022-11-24T07:23:58.974Z,20.27
2022-11-24T07:26:26.726Z,19.53
2022-11-24T07:28:54.132Z,21.73
2022-11-24T07:31:24.729Z,21.53
2022-11-24T07:33:54.162Z,15.07
2022-11-24T07:36:21.587Z,21.93
2022-11-24T07:38:49.266Z,19.40
2022-11-24T07:41:18.194Z,18.97
2022-11-24T07:43:45.727Z,22.17
2022-11-24T07:46:14.137Z,23.87
2022-11-24T07:48:41.635Z,24.50
2022-11-24T07:51:10.692Z,20.97
2022-11-24T07:53:38.400Z,20.83
2022-11-24T07:56:06.503Z,28.87
2022-11-24T07:58:34.451Z,21.03
2022-11-24T08:01:09.279Z,18.47
2022-11-24T08:03:36.776Z,22.03
2022-11-24T08:06:23.581Z,16.23
2022-11-24T08:08:54.168Z,22.70
2022-11-24T08:11:21.576Z,23.23
2022-11-24T08:13:49.083Z,22.50
2022-11-24T08:16:17.593Z,17.93
2022-11-24T08:18:45.673Z,17.77
2022-11-24T08:21:14.023Z,14.80
2022-11-24T08:23:41.462Z,19.53
2022-11-24T08:26:11.841Z,24.67
2022-11-24T08:28:39.252Z,22.73
2022-11-24T08:31:08.580Z,27.30
2022-11-24T08:33:36.403Z,19.77
2022-11-24T08:36:04.861Z,17.00
2022-11-24T08:38:32.280Z,20.60
2022-11-24T08:41:02.795Z,15.97
2022-11-24T08:43:31.550Z,23.40
2022-11-24T08:46:00.364Z,20.80
2022-11-24T08:48:28.045Z,22.73
2022-11-24T08:50:56.530Z,19.47
2022-11-24T08:53:24.002Z,20.20
2022-11-24T08:55:51.732Z,25.73
2022-11-24T08:58:19.153Z,20.03
2022-11-24T09:00:47.870Z,17.60
2022-11-24T09:03:16.373Z,13.30
2022-11-24T09:05:51.840Z,23.27
2022-11-24T09:08:20.779Z,21.93
2022-11-24T09:10:48.154Z,13.93
2022-11-24T09:13:15.610Z,21.63
2022-11-24T09:15:42.999Z,25.27
2022-11-24T09:18:11.731Z,17.30
2022-11-24T09:20:39.143Z,16.27
2022-11-24T09:23:06.521Z,15.60
2022-11-24T09:25:34.165Z,15.80
2022-11-24T09:28:01.561Z,15.77
2022-11-24T09:30:29.211Z,15.03
2022-11-24T09:32:56.870Z,12.83
2022-11-24T09:35:25.708Z,13.03
2022-11-24T09:37:53.105Z,18.57
2022-11-24T09:40:20.592Z,13.30
2022-11-24T09:42:55.986Z,11.60
2022-11-24T09:45:57.204Z,15.37
2022-11-24T09:48:19.935Z,12.87
2022-11-24T09:50:49.305Z,13.33
2022-11-24T09:53:19.660Z,15.53
2022-11-24T09:55:48.418Z,11.53
2022-11-24T09:58:32.210Z,10.60
2022-11-24T10:01:00.390Z,20.67
2022-11-24T10:03:30.908Z,14.37
2022-11-24T10:06:01.162Z,13.00
2022-11-24T10:08:45.264Z,19.13
2022-11-24T10:11:14.123Z,12.60
2022-11-24T10:13:49.838Z,17.13
2022-11-24T10:16:19.742Z,10.80
2022-11-24T10:18:54.577Z,11.90
2022-11-24T10:21:29.235Z,9.70
2022-11-24T10:24:06.145Z,11.40
2022-11-24T10:26:35.997Z,10.37
2022-11-24T10:29:08.543Z,8.40
2022-11-24T10:31:36.836Z,13.73
2022-11-24T10:34:10.693Z,13.60
2022-11-24T10:36:44.951Z,10.07
2022-11-24T10:39:16.592Z,9.43
2022-11-24T10:41:47.983Z,11.40
2022-11-24T10:44:15.593Z,11.17
2022-11-24T10:46:43.299Z,38.30
2022-11-24T10:49:16.839Z,7.80
2022-11-24T10:52:05.084Z,9.77
2022-11-24T10:54:32.960Z,12.23
2022-11-24T10:57:00.408Z,10.17
2022-11-24T10:59:32.827Z,12.30
2022-11-24T11:02:00.520Z,8.87
2022-11-24T11:04:29.159Z,10.07
2022-11-24T11:07:19.292Z,11.77
2022-11-24T11:09:46.845Z,11.70
2022-11-24T11:12:42.565Z,11.10
2022-11-24T11:15:22.916Z,10.40
2022-11-24T11:17:52.231Z,9.13
2022-11-24T11:20:22.011Z,10.37
2022-11-24T11:22:50.973Z,12.87
2022-11-24T11:25:23.156Z,9.57
2022-11-24T11:27:50.702Z,9.33
2022-11-24T11:36:10.204Z,9.87
2022-11-24T11:38:39.860Z,9.50
2022-11-24T11:41:10.931Z,7.33
2022-11-24T11:43:40.804Z,9.17
2022-11-24T11:46:12.562Z,7.47
2022-11-24T11:48:44.077Z,4.60
2022-11-24T11:51:23.677Z,8.13
2022-11-24T11:53:58.178Z,6.90
2022-11-24T11:56:26.808Z,7.63
2022-11-24T11:59:04.199Z,11.73
2022-11-24T12:01:39.397Z,8.43
2022-11-24T12:04:14.586Z,9.40
2022-11-24T12:06:53.251Z,7.77
2022-11-24T12:09:24.692Z,10.60
2022-11-24T12:11:57.478Z,8.23
2022-11-24T12:14:31.742Z,9.20
2022-11-24T12:17:03.894Z,8.30
2022-11-24T12:19:39.714Z,7.37
2022-11-24T12:22:10.109Z,5.83
2022-11-24T12:24:44.848Z,8.50
2022-11-24T12:27:22.608Z,7.37
2022-11-24T12:30:03.700Z,5.40
2022-11-24T12:32:38.786Z,4.80
2022-11-24T12:35:14.904Z,6.00
2022-11-24T12:37:52.431Z,7.53
2022-11-24T12:40:24.673Z,8.23
2022-11-24T12:42:59.600Z,6.90
2022-11-24T12:45:34.347Z,8.80
2022-11-24T12:48:07.995Z,7.60
2022-11-24T12:50:38.210Z,5.03
2022-11-24T12:53:06.983Z,5.97
2022-11-24T12:55:36.312Z,7.40
2022-11-24T13:01:03.456Z,7.97
2022-11-24T13:03:35.763Z,8.63
2022-11-24T13:06:08.589Z,5.83
2022-11-24T13:08:36.869Z,5.63
2022-11-24T13:11:19.190Z,5.10
2022-11-24T13:13:57.971Z,5.93
2022-11-24T13:16:36.197Z,3.83
2022-11-24T13:19:09.999Z,8.80
2022-11-24T13:21:50.800Z,3.67
2022-11-24T13:24:23.053Z,6.27
2022-11-24T13:26:51.353Z,9.90
2022-11-24T13:29:32.294Z,6.43
2022-11-24T13:32:15.070Z,5.53
2022-11-24T13:34:55.635Z,6.87
2022-11-24T13:37:46.291Z,6.20
2022-11-24T13:40:29.906Z,5.87
2022-11-24T13:43:16.215Z,5.53
2022-11-24T13:45:53.949Z,3.60
2022-11-24T13:48:39.853Z,3.80
2022-11-24T13:51:09.929Z,3.90
2022-11-24T13:53:37.935Z,2.77
2022-11-24T13:56:08.337Z,3.80
2022-11-24T13:58:37.940Z,3.03
2022-11-24T14:01:14.162Z,2.70
2022-11-24T14:03:55.373Z,4.37
2022-11-24T14:06:32.839Z,5.37
2022-11-24T14:09:01.572Z,3.47
2022-11-24T14:11:29.300Z,2.67
2022-11-24T14:13:56.746Z,3.07
2022-11-24T14:16:26.592Z,3.57
2022-11-24T14:18:54.040Z,3.80
2022-11-24T14:21:25.521Z,4.37
2022-11-24T14:23:54.314Z,4.17
2022-11-24T14:26:22.431Z,4.53
2022-11-24T14:28:50.148Z,4.23
2022-11-24T14:31:21.940Z,2.83
2022-11-24T14:33:51.343Z,3.27
2022-11-24T14:36:19.299Z,2.80
2022-11-24T14:38:46.809Z,5.37
2022-11-24T14:41:15.805Z,5.30
2022-11-24T14:43:43.279Z,3.90
2022-11-24T14:46:12.074Z,3.60
2022-11-24T14:48:40.172Z,4.17
2022-11-24T14:51:14.105Z,3.73
2022-11-24T14:53:42.234Z,3.53
2022-11-24T14:56:23.242Z,3.63
2022-11-24T14:58:50.892Z,6.17
2022-11-24T15:01:20.658Z,3.93
2022-11-24T15:03:48.345Z,4.03
2022-11-24T15:06:19.810Z,7.97
2022-11-24T15:08:48.933Z,5.77
2022-11-24T15:11:16.404Z,3.13
2022-11-24T15:13:52.321Z,4.80
2022-11-24T15:16:21.541Z,5.07
2022-11-24T15:18:50.018Z,3.83
2022-11-24T15:21:30.607Z,2.90
2022-11-24T15:24:15.459Z,3.33
2022-11-24T15:26:42.903Z,4.80
2022-11-24T15:29:10.517Z,2.77
2022-11-24T15:31:38.284Z,4.57
2022-11-24T15:34:05.722Z,4.07
2022-11-24T15:36:34.504Z,4.10
2022-11-24T15:39:01.914Z,4.83
2022-11-24T15:41:30.427Z,3.87
2022-11-24T15:43:59.817Z,4.57
2022-11-24T15:46:27.947Z,4.10
2022-11-24T15:48:55.634Z,5.80
2022-11-24T15:51:24.329Z,4.50
2022-11-24T15:53:57.196Z,6.63
2022-11-24T15:56:30.479Z,4.07
2022-11-24T15:58:58.041Z,5.80
2022-11-24T16:01:28.179Z,5.00
2022-11-24T16:03:56.645Z,5.63
2022-11-24T16:06:25.456Z,6.80
2022-11-24T16:08:54.950Z,6.00
2022-11-24T16:11:22.553Z,6.90
2022-11-24T16:13:52.349Z,5.97
2022-11-24T16:16:21.258Z,6.13
2022-11-24T16:18:48.732Z,7.07
2022-11-24T16:21:16.152Z,5.80
2022-11-24T16:23:43.738Z,5.97
2022-11-24T16:26:12.477Z,8.27
2022-11-24T16:28:40.589Z,6.27
2022-11-24T16:31:08.173Z,6.63
2022-11-24T16:33:38.592Z,5.63
2022-11-24T16:36:06.258Z,5.03
2022-11-24T16:38:35.476Z,7.53
2022-11-24T16:41:02.942Z,5.53
2022-11-24T16:43:31.722Z,6.60
2022-11-24T16:46:04.007Z,7.73
2022-11-24T16:48:36.317Z,7.00
2022-11-24T16:51:06.235Z,9.50
2022-11-24T16:53:33.630Z,9.40
2022-11-24T16:56:01.188Z,12.37
2022-11-24T16:58:28.590Z,11.60
2022-11-24T17:01:03.090Z,10.57
2022-11-24T17:03:32.579Z,12.97
2022-11-24T17:06:00.347Z,13.07
2022-11-24T17:08:27.758Z,12.60
2022-11-24T17:10:55.155Z,12.27
2022-11-24T17:13:22.550Z,12.57
2022-11-24T17:15:54.098Z,12.30
2022-11-24T17:18:24.885Z,14.33
2022-11-24T17:20:52.982Z,15.33
2022-11-24T17:23:20.416Z,11.83
2022-11-24T17:25:48.320Z,9.67
2022-11-24T17:28:15.743Z,10.87
2022-11-24T17:30:43.191Z,11.03
2022-11-24T17:33:10.724Z,10.07
2022-11-24T17:35:39.500Z,10.53
2022-11-24T17:38:06.911Z,10.17
2022-11-24T17:40:34.429Z,7.37
2022-11-24T17:43:02.294Z,10.83
2022-11-24T17:45:30.402Z,8.17
2022-11-24T17:47:59.500Z,8.63
2022-11-24T17:50:26.948Z,12.90
2022-11-24T17:52:55.758Z,15.33
2022-11-24T17:55:23.269Z,12.17
2022-11-24T17:57:51.015Z,9.23
2022-11-24T18:00:18.945Z,10.60
2022-11-24T18:02:46.444Z,7.20
2022-11-24T18:05:13.894Z,7.57
2022-11-24T18:07:41.364Z,9.23
2022-11-24T18:10:10.745Z,7.40
2022-11-24T18:12:39.189Z,10.73
2022-11-24T18:15:07.201Z,9.27
2022-11-24T18:17:34.630Z,8.63
2022-11-24T18:20:02.147Z,7.63
2022-11-24T18:22:57.844Z,9.10
2022-11-24T18:25:18.415Z,11.77
2022-11-24T18:27:45.798Z,10.43
2022-11-24T18:30:13.354Z,10.93
2022-11-24T18:32:40.918Z,10.77
2022-11-24T18:35:08.620Z,7.97
2022-11-24T18:37:39.051Z,12.10
2022-11-24T18:40:07.273Z,9.37
2022-11-24T18:42:36.409Z,8.43
2022-11-24T18:45:04.283Z,9.50
2022-11-24T18:47:31.744Z,9.23
2022-11-24T18:50:00.187Z,9.73
2022-11-24T18:52:27.633Z,7.37
2022-11-24T18:54:55.015Z,9.43
2022-11-24T18:57:23.507Z,7.93
2022-11-24T18:59:52.285Z,7.30
2022-11-24T19:02:19.733Z,8.03
2022-11-24T19:04:47.167Z,10.70
2022-11-24T19:07:16.934Z,7.47
2022-11-24T19:09:46.313Z,8.30
2022-11-24T19:12:13.702Z,9.63
2022-11-24T19:14:41.181Z,10.73
2022-11-24T19:17:10.056Z,9.90
2022-11-24T19:19:39.573Z,11.03
2022-11-24T19:22:07.035Z,13.13
2022-11-24T19:24:34.611Z,7.00
2022-11-24T19:27:02.140Z,10.13
2022-11-24T19:29:29.572Z,9.93
2022-11-24T19:31:57.013Z,8.40
2022-11-24T19:34:25.780Z,10.97
2022-11-24T19:36:53.175Z,13.70
2022-11-24T19:39:20.711Z,7.63
2022-11-24T19:41:48.082Z,8.07
2022-11-24T19:44:15.540Z,8.80
2022-11-24T19:46:42.930Z,9.90
2022-11-24T19:49:10.369Z,11.73
2022-11-24T19:51:40.029Z,7.70
2022-11-24T19:54:08.562Z,6.00
2022-11-24T19:56:36.928Z,8.30
2022-11-24T19:59:05.301Z,9.03
2022-11-24T20:01:33.736Z,8.47
2022-11-24T20:04:02.153Z,8.47
2022-11-24T20:06:30.522Z,12.57
2022-11-24T20:09:00.345Z,9.10
2022-11-24T20:11:28.428Z,9.90
2022-11-24T20:13:55.897Z,9.97
2022-11-24T20:16:26.542Z,8.30
2022-11-24T20:18:54.678Z,11.00
2022-11-24T20:21:23.185Z,9.40
2022-11-24T20:23:53.249Z,8.43
2022-11-24T20:26:23.178Z,8.40
2022-11-24T20:28:50.708Z,6.87
2022-11-24T20:31:19.587Z,8.03
2022-11-24T20:33:47.075Z,7.37
2022-11-24T20:36:15.398Z,8.37
2022-11-24T20:38:43.429Z,7.87
2022-11-24T20:41:11.955Z,12.47
2022-11-24T20:43:41.308Z,8.13
2022-11-24T20:46:09.451Z,10.70
2022-11-24T20:48:38.510Z,13.00
2022-11-24T20:51:06.683Z,11.13
2022-11-24T20:53:34.291Z,13.30
2022-11-24T20:56:05.850Z,8.57
2022-11-24T20:58:34.438Z,9.57
2022-11-24T21:01:05.761Z,10.17
2022-11-24T21:03:33.351Z,8.50
2022-11-24T21:06:02.386Z,13.60
2022-11-24T21:08:30.071Z,10.53
2022-11-24T21:10:58.346Z,8.90
2022-11-24T21:13:26.273Z,15.23
2022-11-24T21:15:54.222Z,9.40
2022-11-24T21:18:24.137Z,7.37
2022-11-24T21:20:51.662Z,10.20
2022-11-24T21:23:20.502Z,8.50
2022-11-24T21:25:47.936Z,8.67
2022-11-24T21:28:15.416Z,8.80
2022-11-24T21:30:42.875Z,5.90
2022-11-24T21:33:10.297Z,10.97
2022-11-24T21:35:39.082Z,11.80
2022-11-24T21:38:06.528Z,33.77
2022-11-24T21:40:33.913Z,19.73
2022-11-24T21:43:01.326Z,10.50
2022-11-24T21:45:29.512Z,12.63
2022-11-24T21:47:57.432Z,18.20
2022-11-24T21:50:24.829Z,12.43
2022-11-24T21:52:53.592Z,10.90
2022-11-24T21:55:21.022Z,13.53
2022-11-24T21:57:48.438Z,13.03
2022-11-24T22:00:16.718Z,18.37
2022-11-24T22:02:44.178Z,16.70
2022-11-24T22:05:12.666Z,11.37
2022-11-24T22:07:40.114Z,11.57
2022-11-24T22:10:09.870Z,9.43
2022-11-24T22:12:37.296Z,8.53
2022-11-24T22:15:04.903Z,8.23
2022-11-24T22:17:32.303Z,9.53
2022-11-24T22:19:59.697Z,10.33
2022-11-24T22:22:27.489Z,10.57
2022-11-24T22:24:54.868Z,8.97
2022-11-24T22:27:23.627Z,7.67
2022-11-24T22:29:54.113Z,9.97
2022-11-24T22:32:21.767Z,10.13
2022-11-24T22:34:49.172Z,8.97
2022-11-24T22:37:16.579Z,13.27
2022-11-24T22:39:44.097Z,7.93
2022-11-24T22:42:11.495Z,9.87
2022-11-24T22:44:40.228Z,11.50
2022-11-24T22:47:07.624Z,14.43
2022-11-24T22:49:35.015Z,11.20
2022-11-24T22:52:02.446Z,12.60
2022-11-24T22:54:29.859Z,6.83
2022-11-24T22:56:57.314Z,8.57
2022-11-24T22:59:24.778Z,8.87
2022-11-24T23:01:53.536Z,9.53
2022-11-24T23:04:21.002Z,8.00
2022-11-24T23:06:48.521Z,10.33
2022-11-24T23:09:16.009Z,9.90
2022-11-24T23:11:43.460Z,9.43
2022-11-24T23:14:13.664Z,6.83
2022-11-24T23:16:41.256Z,14.63
2022-11-24T23:19:10.350Z,9.97
2022-11-24T23:21:39.246Z,5.70
2022-11-24T23:24:07.577Z,8.30
2022-11-24T23:26:35.758Z,7.07
2022-11-24T23:29:03.445Z,9.60
2022-11-24T23:31:30.962Z,8.17
2022-11-24T23:33:58.940Z,8.73
2022-11-24T23:36:27.932Z,11.23
2022-11-24T23:38:55.603Z,7.93
2022-11-24T23:41:24.265Z,9.63
2022-11-24T23:43:52.322Z,8.20
2022-11-24T23:46:20.839Z,6.47
2022-11-24T23:48:48.689Z,5.40
2022-11-24T23:51:17.131Z,8.07
2022-11-24T23:53:46.189Z,6.70
2022-11-24T23:56:14.866Z,8.73
2022-11-24T23:58:42.530Z,13.27
